createdAt,value
2018-05-18T00:02:23.139Z,10.30
2018-05-18T00:04:50.617Z,10.50
2018-05-18T00:07:18.889Z,10.40
2018-05-18T00:09:47.119Z,10.40
2018-05-18T00:12:14.608Z,10.30
2018-05-18T00:14:42.091Z,10.30
2018-05-18T00:17:10.335Z,10.20
2018-05-18T00:19:37.807Z,10.10
2018-05-18T00:22:06.059Z,10.00
2018-05-18T00:24:33.539Z,10.00
2018-05-18T00:27:01.013Z,10.10
2018-05-18T00:29:29.258Z,10.20
2018-05-18T00:31:56.743Z,10.20
2018-05-18T00:34:25.004Z,10.30
2018-05-18T00:36:52.494Z,10.20
2018-05-18T00:39:20.780Z,10.20
2018-05-18T00:41:48.240Z,10.20
2018-05-18T00:44:15.740Z,10.10
2018-05-18T00:46:43.210Z,10.20
2018-05-18T00:49:10.678Z,10.10
2018-05-18T00:51:38.934Z,10.00
2018-05-18T00:54:06.399Z,9.90
2018-05-18T00:56:33.883Z,10.00
2018-05-18T00:59:01.363Z,10.00
2018-05-18T01:01:28.861Z,10.10
2018-05-18T01:03:56.562Z,10.20
2018-05-18T01:06:24.041Z,10.20
2018-05-18T01:08:51.529Z,10.20
2018-05-18T01:11:18.993Z,10.10
2018-05-18T01:13:46.468Z,10.20
2018-05-18T01:16:13.951Z,10.20
2018-05-18T01:18:41.424Z,10.20
2018-05-18T01:21:08.884Z,10.20
2018-05-18T01:23:36.652Z,10.20
2018-05-18T01:26:04.113Z,10.20
2018-05-18T01:28:31.617Z,10.10
2018-05-18T01:30:59.097Z,10.00
2018-05-18T01:33:26.582Z,10.00
2018-05-18T01:35:54.057Z,10.00
2018-05-18T01:38:21.513Z,10.00
2018-05-18T01:40:49.000Z,9.90
2018-05-18T01:43:16.455Z,9.80
2018-05-18T01:45:43.925Z,9.60
2018-05-18T01:48:12.173Z,9.80
2018-05-18T01:50:39.637Z,9.70
2018-05-18T01:53:07.109Z,9.80
2018-05-18T01:55:34.582Z,9.80
2018-05-18T01:58:02.843Z,9.80
2018-05-18T02:00:31.086Z,9.70
2018-05-18T02:02:58.578Z,9.70
2018-05-18T02:05:26.812Z,9.70
2018-05-18T02:07:54.291Z,9.70
2018-05-18T02:10:21.750Z,9.80
2018-05-18T02:12:49.246Z,9.80
2018-05-18T02:15:16.714Z,9.80
2018-05-18T02:17:44.193Z,9.80
2018-05-18T02:20:11.677Z,9.80
2018-05-18T02:22:39.146Z,9.80
2018-05-18T02:25:07.417Z,9.90
2018-05-18T02:27:35.660Z,10.00
2018-05-18T02:30:03.895Z,10.00
2018-05-18T02:32:31.383Z,9.90
2018-05-18T02:34:58.844Z,9.80
2018-05-18T02:37:26.310Z,9.90
2018-05-18T02:39:53.801Z,9.90
2018-05-18T02:42:21.267Z,9.90
2018-05-18T02:44:49.511Z,9.90
2018-05-18T02:47:18.476Z,9.80
2018-05-18T02:49:45.941Z,9.80
2018-05-18T02:52:13.412Z,9.80
2018-05-18T02:54:40.888Z,9.80
2018-05-18T02:57:08.385Z,9.80
2018-05-18T02:59:35.854Z,9.70
2018-05-18T03:02:03.318Z,9.80
2018-05-18T03:04:30.808Z,9.70
2018-05-18T03:06:58.270Z,9.70
2018-05-18T03:09:25.742Z,9.70
2018-05-18T03:11:53.978Z,9.70
2018-05-18T03:14:21.498Z,9.60
2018-05-18T03:16:48.925Z,9.60
2018-05-18T03:19:16.403Z,9.50
2018-05-18T03:21:43.894Z,9.50
2018-05-18T03:24:11.393Z,9.50
2018-05-18T03:26:38.863Z,9.50
2018-05-18T03:29:06.330Z,9.50
2018-05-18T03:31:34.567Z,9.50
2018-05-18T03:34:02.034Z,9.50
2018-05-18T03:36:29.491Z,9.40
2018-05-18T03:38:56.994Z,9.40
2018-05-18T03:41:24.488Z,9.40
2018-05-18T03:43:51.971Z,9.50
2018-05-18T03:46:19.467Z,9.50
2018-05-18T03:48:46.931Z,9.40
2018-05-18T03:51:14.397Z,9.40
2018-05-18T03:53:41.870Z,9.40
2018-05-18T03:56:09.335Z,9.50
2018-05-18T03:58:36.810Z,9.50
2018-05-18T04:01:04.278Z,9.50
2018-05-18T04:03:43.698Z,9.60
2018-05-18T04:06:22.954Z,9.60
2018-05-18T04:08:53.162Z,9.60
2018-05-18T04:11:20.625Z,9.50
2018-05-18T04:13:48.098Z,9.50
2018-05-18T04:16:16.317Z,9.60
2018-05-18T04:18:43.822Z,9.50
2018-05-18T04:21:12.051Z,9.70
2018-05-18T04:23:39.530Z,9.60
2018-05-18T04:26:07.002Z,9.70
2018-05-18T04:28:34.475Z,9.70
2018-05-18T04:31:02.702Z,9.60
2018-05-18T04:33:30.184Z,9.60
2018-05-18T04:35:57.668Z,9.70
2018-05-18T04:38:25.893Z,9.50
2018-05-18T04:40:53.383Z,9.50
2018-05-18T04:43:20.924Z,9.60
2018-05-18T04:45:49.078Z,9.70
2018-05-18T04:48:16.538Z,9.70
2018-05-18T04:50:44.030Z,9.80
2018-05-18T04:53:11.485Z,9.80
2018-05-18T04:55:38.970Z,9.80
2018-05-18T04:58:06.449Z,9.60
2018-05-18T05:00:33.966Z,9.60
2018-05-18T05:03:02.231Z,9.50
2018-05-18T05:05:29.752Z,9.50
2018-05-18T05:07:57.941Z,9.50
2018-05-18T05:10:25.409Z,9.50
2018-05-18T05:12:52.871Z,9.60
2018-05-18T05:15:20.329Z,9.60
2018-05-18T05:17:47.812Z,9.70
2018-05-18T05:20:16.086Z,9.80
2018-05-18T05:22:44.325Z,9.80
2018-05-18T05:25:12.574Z,9.80
2018-05-18T05:27:40.070Z,9.70
2018-05-18T05:30:07.538Z,9.80
2018-05-18T05:32:35.085Z,9.80
2018-05-18T05:35:02.543Z,9.90
2018-05-18T05:37:30.028Z,9.90
2018-05-18T05:39:58.258Z,10.00
2018-05-18T05:42:25.826Z,9.90
2018-05-18T05:44:53.295Z,9.90
2018-05-18T05:47:20.766Z,9.80
2018-05-18T05:49:49.011Z,9.90
2018-05-18T05:52:16.496Z,9.80
2018-05-18T05:54:44.805Z,10.00
2018-05-18T05:57:12.318Z,9.90
2018-05-18T05:59:39.800Z,10.10
2018-05-18T06:02:08.060Z,10.20
2018-05-18T06:04:35.533Z,10.10
2018-05-18T06:07:03.782Z,10.20
2018-05-18T06:09:31.261Z,10.20
2018-05-18T06:11:59.536Z,10.30
2018-05-18T06:14:27.770Z,10.30
2018-05-18T06:16:55.241Z,10.30
2018-05-18T06:19:22.720Z,10.50
2018-05-18T06:21:50.945Z,10.60
2018-05-18T06:24:18.434Z,10.50
2018-05-18T06:26:45.924Z,10.50
2018-05-18T06:29:13.430Z,10.60
2018-05-18T06:31:40.915Z,10.50
2018-05-18T06:34:08.402Z,10.30
2018-05-18T06:36:36.642Z,10.30
2018-05-18T06:39:04.119Z,10.30
2018-05-18T06:41:32.385Z,10.40
2018-05-18T06:43:59.867Z,10.40
2018-05-18T06:46:27.331Z,10.50
2018-05-18T06:48:54.804Z,10.50
2018-05-18T06:51:22.278Z,10.40
2018-05-18T06:53:49.758Z,10.20
2018-05-18T06:56:17.235Z,10.20
2018-05-18T06:58:45.488Z,10.00
2018-05-18T07:01:12.988Z,10.00
2018-05-18T07:03:41.229Z,10.20
2018-05-18T07:06:08.690Z,10.20
2018-05-18T07:08:36.178Z,10.50
2018-05-18T07:11:03.665Z,10.80
2018-05-18T07:13:31.118Z,11.00
2018-05-18T07:15:58.626Z,10.80
2018-05-18T07:18:26.138Z,10.80
2018-05-18T07:20:54.063Z,10.50
2018-05-18T07:23:22.306Z,10.70
2018-05-18T07:25:49.780Z,10.70
2018-05-18T07:28:17.272Z,10.90
2018-05-18T07:30:44.741Z,11.10
2018-05-18T07:33:12.248Z,11.20
2018-05-18T07:35:39.725Z,11.20
2018-05-18T07:38:07.977Z,11.30
2018-05-18T07:40:35.441Z,11.20
2018-05-18T07:43:02.956Z,11.50
2018-05-18T07:45:30.414Z,11.40
2018-05-18T07:47:57.954Z,11.30
2018-05-18T07:50:25.454Z,11.50
2018-05-18T07:52:52.942Z,11.60
2018-05-18T07:55:21.203Z,11.60
2018-05-18T07:57:48.683Z,11.50
2018-05-18T08:00:16.926Z,11.70
2018-05-18T08:02:44.405Z,11.60
2018-05-18T08:05:12.657Z,11.70
2018-05-18T08:07:40.146Z,11.70
2018-05-18T08:10:08.415Z,11.70
2018-05-18T08:12:35.882Z,11.60
2018-05-18T08:15:04.287Z,12.00
2018-05-18T08:17:31.716Z,11.80
2018-05-18T08:19:59.964Z,11.20
2018-05-18T08:22:27.426Z,11.20
2018-05-18T08:24:54.949Z,11.30
2018-05-18T08:27:23.334Z,11.30
2018-05-18T08:29:50.819Z,11.70
2018-05-18T08:32:18.319Z,11.90
2018-05-18T08:34:45.810Z,12.10
2018-05-18T08:37:13.311Z,11.80
2018-05-18T08:39:41.574Z,11.60
2018-05-18T08:42:09.070Z,11.60
2018-05-18T08:44:36.534Z,11.60
2018-05-18T08:47:04.023Z,11.90
2018-05-18T08:49:31.490Z,12.40
2018-05-18T08:51:58.984Z,12.90
2018-05-18T08:54:27.222Z,12.30
2018-05-18T08:56:55.168Z,12.30
2018-05-18T08:59:22.674Z,12.30
2018-05-18T09:01:50.911Z,12.00
2018-05-18T09:04:18.390Z,11.90
2018-05-18T09:06:45.869Z,12.10
2018-05-18T09:09:14.131Z,12.10
2018-05-18T09:11:41.597Z,12.00
2018-05-18T09:14:09.862Z,12.50
2018-05-18T09:16:37.326Z,12.50
2018-05-18T09:19:05.547Z,12.80
2018-05-18T09:21:33.036Z,12.70
2018-05-18T09:24:00.519Z,12.80
2018-05-18T09:26:28.769Z,12.60
2018-05-18T09:28:56.220Z,12.60
2018-05-18T09:31:23.698Z,12.70
2018-05-18T09:33:51.240Z,12.70
2018-05-18T09:36:19.482Z,12.50
2018-05-18T09:38:46.949Z,12.50
2018-05-18T09:41:14.434Z,12.40
2018-05-18T09:43:41.910Z,12.60
2018-05-18T09:46:10.138Z,12.80
2018-05-18T09:48:37.621Z,12.80
2018-05-18T09:51:05.102Z,13.20
2018-05-18T09:53:33.340Z,12.70
2018-05-18T09:56:00.825Z,12.70
2018-05-18T09:58:28.298Z,12.80
2018-05-18T10:00:56.542Z,12.50
2018-05-18T10:03:24.022Z,12.40
2018-05-18T10:05:52.353Z,12.80
2018-05-18T10:08:20.457Z,13.10
2018-05-18T10:10:48.297Z,13.30
2018-05-18T10:13:15.764Z,13.30
2018-05-18T10:15:43.995Z,13.50
2018-05-18T10:18:11.454Z,13.50
2018-05-18T10:20:38.941Z,13.60
2018-05-18T10:23:06.405Z,13.50
2018-05-18T10:25:34.641Z,13.80
2018-05-18T10:28:02.106Z,13.70
2018-05-18T10:30:31.352Z,13.50
2018-05-18T10:32:58.834Z,13.20
2018-05-18T10:35:27.116Z,13.70
2018-05-18T10:37:55.386Z,13.60
2018-05-18T10:40:23.635Z,13.40
2018-05-18T10:42:51.101Z,13.30
2018-05-18T10:45:18.652Z,13.60
2018-05-18T10:47:46.054Z,13.70
2018-05-18T10:50:13.558Z,13.60
2018-05-18T10:52:41.786Z,14.00
2018-05-18T10:55:09.300Z,13.90
2018-05-18T10:57:36.762Z,14.20
2018-05-18T11:00:04.271Z,14.20
2018-05-18T11:02:31.765Z,14.30
2018-05-18T11:04:59.250Z,14.40
2018-05-18T11:07:27.495Z,14.00
2018-05-18T11:09:54.957Z,14.00
2018-05-18T11:12:22.441Z,14.40
2018-05-18T11:14:50.690Z,14.80
2018-05-18T11:17:18.150Z,14.70
2018-05-18T11:19:45.633Z,14.40
2018-05-18T11:22:13.860Z,14.40
2018-05-18T11:24:41.347Z,14.40
2018-05-18T11:27:09.580Z,15.10
2018-05-18T11:29:37.096Z,15.10
2018-05-18T11:32:05.352Z,14.70
2018-05-18T11:34:32.828Z,14.60
2018-05-18T11:37:01.070Z,14.30
2018-05-18T11:39:28.572Z,14.30
2018-05-18T11:41:56.803Z,14.50
2018-05-18T11:44:24.290Z,14.50
2018-05-18T11:46:52.525Z,14.70
2018-05-18T11:49:20.010Z,14.70
2018-05-18T11:51:47.493Z,14.70
2018-05-18T11:54:15.730Z,14.70
2018-05-18T11:56:43.202Z,14.60
2018-05-18T11:59:10.703Z,15.00
2018-05-18T12:01:38.197Z,15.20
2018-05-18T12:04:05.696Z,15.10
2018-05-18T12:06:34.322Z,15.20
2018-05-18T12:09:01.811Z,15.10
2018-05-18T12:11:29.375Z,15.40
2018-05-18T12:13:56.848Z,15.40
2018-05-18T12:16:25.078Z,15.10
2018-05-18T12:18:52.579Z,15.10
2018-05-18T12:21:20.817Z,15.40
2018-05-18T12:23:48.294Z,15.40
2018-05-18T12:26:15.847Z,15.70
2018-05-18T12:28:44.038Z,16.10
2018-05-18T12:31:12.299Z,16.30
2018-05-18T12:33:39.762Z,16.20
2018-05-18T12:36:07.232Z,16.20
2018-05-18T12:38:35.467Z,15.90
2018-05-18T12:41:02.945Z,15.90
2018-05-18T12:43:30.412Z,16.00
2018-05-18T12:45:57.894Z,16.00
2018-05-18T12:48:26.134Z,16.00
2018-05-18T12:50:53.606Z,16.00
2018-05-18T12:53:21.093Z,16.20
2018-05-18T12:55:48.579Z,16.40
2018-05-18T12:58:16.058Z,16.00
2018-05-18T13:00:43.530Z,15.80
2018-05-18T13:03:11.014Z,16.00
2018-05-18T13:05:39.274Z,15.80
2018-05-18T13:08:07.572Z,15.80
2018-05-18T13:10:34.989Z,15.70
2018-05-18T13:13:02.494Z,16.00
2018-05-18T13:15:29.960Z,16.10
2018-05-18T13:17:57.457Z,16.40
2018-05-18T13:20:24.954Z,16.10
2018-05-18T13:22:52.431Z,16.20
2018-05-18T13:25:19.934Z,16.50
2018-05-18T13:27:47.402Z,16.40
2018-05-18T13:30:14.866Z,16.20
2018-05-18T13:32:43.120Z,16.80
2018-05-18T13:35:10.581Z,16.80
2018-05-18T13:37:38.097Z,16.90
2018-05-18T13:40:05.548Z,16.60
2018-05-18T13:42:33.022Z,16.50
2018-05-18T13:45:00.582Z,16.50
2018-05-18T13:47:28.002Z,16.80
2018-05-18T13:49:55.474Z,16.80
2018-05-18T13:52:22.941Z,16.90
2018-05-18T13:54:50.412Z,16.70
2018-05-18T13:57:17.933Z,16.70
2018-05-18T13:59:45.379Z,16.60
2018-05-18T14:02:13.625Z,16.80
2018-05-18T14:04:41.101Z,16.80
2018-05-18T14:07:08.584Z,16.90
2018-05-18T14:09:36.048Z,17.30
2018-05-18T14:12:03.526Z,17.60
2018-05-18T14:14:31.781Z,17.40
2018-05-18T14:16:59.241Z,17.40
2018-05-18T14:19:26.721Z,17.10
2018-05-18T14:21:54.199Z,16.80
2018-05-18T14:24:21.677Z,17.10
2018-05-18T14:26:49.924Z,17.00
2018-05-18T14:29:17.404Z,17.00
2018-05-18T14:31:44.886Z,17.00
2018-05-18T14:34:13.112Z,17.60
2018-05-18T14:36:40.591Z,17.50
2018-05-18T14:39:08.070Z,17.80
2018-05-18T14:41:36.325Z,17.20
2018-05-18T14:44:03.801Z,17.20
2018-05-18T14:46:32.031Z,17.40
2018-05-18T14:48:59.548Z,17.40
2018-05-18T14:51:27.005Z,17.70
2018-05-18T14:53:54.471Z,17.60
2018-05-18T14:56:21.963Z,17.50
2018-05-18T14:58:49.437Z,17.70
2018-05-18T15:01:16.907Z,17.50
2018-05-18T15:03:45.175Z,17.30
2018-05-18T15:06:12.682Z,17.20
2018-05-18T15:08:40.143Z,17.50
2018-05-18T15:11:07.698Z,17.40
2018-05-18T15:13:35.103Z,17.40
2018-05-18T15:16:02.564Z,17.50
2018-05-18T15:18:30.054Z,17.40
2018-05-18T15:20:57.526Z,17.10
2018-05-18T15:23:25.019Z,17.30
2018-05-18T15:25:52.501Z,17.40
2018-05-18T15:28:20.744Z,18.00
2018-05-18T15:30:48.209Z,17.90
2018-05-18T15:33:15.743Z,17.70
2018-05-18T15:35:43.225Z,17.50
2018-05-18T15:38:10.708Z,17.30
2018-05-18T15:40:38.961Z,17.10
2018-05-18T15:43:06.424Z,17.10
2018-05-18T15:45:33.883Z,17.00
2018-05-18T15:48:01.359Z,17.10
2018-05-18T15:50:29.601Z,17.30
2018-05-18T15:52:57.101Z,17.30
2018-05-18T15:55:25.354Z,17.30
2018-05-18T15:57:52.821Z,17.20
2018-05-18T16:00:21.097Z,17.10
2018-05-18T16:02:49.413Z,16.80
2018-05-18T16:05:16.873Z,16.80
2018-05-18T16:07:44.339Z,16.80
2018-05-18T16:10:11.806Z,16.60
2018-05-18T16:12:39.320Z,16.60
2018-05-18T16:15:06.785Z,16.60
2018-05-18T16:17:34.241Z,16.80
2018-05-18T16:20:01.770Z,17.00
2018-05-18T16:22:29.246Z,16.90
2018-05-18T16:24:57.479Z,16.60
2018-05-18T16:27:25.013Z,16.60
2018-05-18T16:29:52.499Z,16.80
2018-05-18T16:32:19.977Z,16.90
2018-05-18T16:34:48.222Z,16.80
2018-05-18T16:37:15.690Z,16.80
2018-05-18T16:39:43.173Z,16.70
2018-05-18T16:42:11.821Z,16.80
2018-05-18T16:44:39.291Z,16.80
2018-05-18T16:47:06.754Z,16.70
2018-05-18T16:49:34.260Z,16.50
2018-05-18T16:52:01.728Z,16.40
2018-05-18T16:54:29.237Z,16.60
2018-05-18T16:56:57.483Z,17.30
2018-05-18T16:59:25.723Z,17.50
2018-05-18T17:01:53.194Z,17.50
2018-05-18T17:04:20.663Z,17.60
2018-05-18T17:06:48.150Z,17.70
2018-05-18T17:09:15.625Z,17.60
2018-05-18T17:11:43.879Z,17.70
2018-05-18T17:14:11.358Z,17.70
2018-05-18T17:16:39.620Z,18.00
2018-05-18T17:19:07.111Z,18.00
2018-05-18T17:21:34.596Z,17.70
2018-05-18T17:24:02.085Z,17.20
2018-05-18T17:26:29.569Z,17.20
2018-05-18T17:28:57.833Z,17.10
2018-05-18T17:31:26.080Z,17.10
2018-05-18T17:33:53.554Z,17.10
2018-05-18T17:36:21.016Z,17.10
2018-05-18T17:38:48.518Z,17.20
2018-05-18T17:41:15.977Z,17.30
2018-05-18T17:43:43.474Z,17.20
2018-05-18T17:46:10.951Z,17.20
2018-05-18T17:48:38.471Z,17.20
2018-05-18T17:51:05.948Z,17.10
2018-05-18T17:53:33.417Z,17.10
2018-05-18T17:56:00.877Z,17.20
2018-05-18T17:58:29.137Z,17.00
2018-05-18T18:00:56.607Z,17.00
2018-05-18T18:03:24.089Z,16.90
2018-05-18T18:05:51.562Z,17.00
2018-05-18T18:08:19.039Z,16.90
2018-05-18T18:10:46.522Z,16.70
2018-05-18T18:13:13.990Z,16.50
2018-05-18T18:15:41.473Z,16.50
2018-05-18T18:18:08.950Z,16.50
2018-05-18T18:20:38.650Z,16.40
2018-05-18T18:23:06.152Z,16.30
2018-05-18T18:25:33.902Z,16.10
2018-05-18T18:28:01.378Z,16.10
2018-05-18T18:30:28.847Z,15.90
2018-05-18T18:32:56.336Z,15.80
2018-05-18T18:35:24.561Z,15.60
2018-05-18T18:37:52.039Z,15.60
2018-05-18T18:40:19.514Z,15.50
2018-05-18T18:42:47.762Z,15.40
2018-05-18T18:45:15.239Z,15.40
2018-05-18T18:47:43.512Z,15.20
2018-05-18T18:50:11.019Z,15.10
2018-05-18T18:52:38.489Z,15.10
2018-05-18T18:55:05.962Z,15.20
2018-05-18T18:57:33.425Z,15.10
2018-05-18T19:00:00.903Z,15.00
2018-05-18T19:02:28.365Z,14.90
2018-05-18T19:04:56.641Z,14.80
2018-05-18T19:07:24.905Z,14.70
2018-05-18T19:09:52.366Z,14.70
2018-05-18T19:12:20.093Z,14.70
2018-05-18T19:14:47.554Z,14.60
2018-05-18T19:17:15.033Z,14.60
2018-05-18T19:19:42.501Z,14.50
2018-05-18T19:22:10.752Z,14.40
2018-05-18T19:24:38.981Z,14.40
2018-05-18T19:27:06.454Z,14.40
2018-05-18T19:29:33.926Z,14.30
2018-05-18T19:32:01.403Z,14.30
2018-05-18T19:34:28.870Z,14.20
2018-05-18T19:36:56.359Z,14.20
2018-05-18T19:39:24.621Z,14.00
2018-05-18T19:41:52.126Z,14.00
2018-05-18T19:44:19.610Z,14.00
2018-05-18T19:46:47.182Z,13.90
2018-05-18T19:49:14.654Z,13.90
2018-05-18T19:51:42.910Z,13.80
2018-05-18T19:54:10.378Z,13.80
2018-05-18T19:56:38.694Z,13.70
2018-05-18T19:59:06.169Z,13.70
2018-05-18T20:01:33.692Z,13.70
2018-05-18T20:04:01.186Z,13.70
2018-05-18T20:06:29.451Z,13.60
2018-05-18T20:08:57.010Z,13.50
2018-05-18T20:11:24.498Z,13.60
2018-05-18T20:13:51.962Z,13.60
2018-05-18T20:16:19.449Z,13.50
2018-05-18T20:18:47.686Z,13.40
2018-05-18T20:21:15.147Z,13.40
2018-05-18T20:23:42.622Z,13.40
2018-05-18T20:26:10.867Z,13.40
2018-05-18T20:28:38.339Z,13.40
2018-05-18T20:31:05.825Z,13.40
2018-05-18T20:33:34.084Z,13.30
2018-05-18T20:36:01.546Z,13.30
2018-05-18T20:38:29.790Z,13.20
2018-05-18T20:40:57.261Z,13.10
2018-05-18T20:43:24.727Z,13.10
2018-05-18T20:45:52.199Z,12.90
2018-05-18T20:48:20.444Z,12.70
2018-05-18T20:50:47.933Z,12.70
2018-05-18T20:53:16.168Z,12.60
2018-05-18T20:55:43.654Z,12.50
2018-05-18T20:58:11.124Z,12.50
2018-05-18T21:00:39.379Z,12.30
2018-05-18T21:03:06.858Z,12.30
2018-05-18T21:05:35.152Z,12.20
2018-05-18T21:08:02.621Z,12.20
2018-05-18T21:10:30.197Z,12.20
2018-05-18T21:12:57.584Z,12.10
2018-05-18T21:15:25.058Z,12.00
2018-05-18T21:17:53.288Z,12.00
2018-05-18T21:20:20.766Z,11.90
2018-05-18T21:22:48.251Z,11.90
2018-05-18T21:25:16.469Z,11.80
2018-05-18T21:27:43.964Z,11.70
2018-05-18T21:30:11.442Z,11.70
2018-05-18T21:32:39.696Z,11.60
2018-05-18T21:35:07.178Z,11.50
2018-05-18T21:37:35.422Z,11.50
2018-05-18T21:40:02.895Z,11.40
2018-05-18T21:42:30.489Z,11.40
2018-05-18T21:44:57.977Z,11.40
2018-05-18T21:47:25.463Z,11.30
2018-05-18T21:49:52.933Z,11.30
2018-05-18T21:52:21.170Z,11.20
2018-05-18T21:54:49.440Z,11.10
2018-05-18T21:57:16.902Z,11.00
2018-05-18T21:59:44.378Z,11.10
2018-05-18T22:02:11.853Z,11.00
2018-05-18T22:04:40.182Z,11.00
2018-05-18T22:07:07.651Z,11.00
2018-05-18T22:09:35.878Z,10.90
2018-05-18T22:12:03.367Z,10.80
2018-05-18T22:14:30.829Z,10.90
2018-05-18T22:16:58.307Z,10.80
2018-05-18T22:19:25.773Z,10.80
2018-05-18T22:21:53.273Z,10.70
2018-05-18T22:24:20.734Z,10.70
2018-05-18T22:26:48.247Z,10.70
2018-05-18T22:29:15.755Z,10.60
2018-05-18T22:31:43.210Z,10.60
2018-05-18T22:34:10.705Z,10.60
2018-05-18T22:36:38.177Z,10.60
2018-05-18T22:39:05.690Z,10.50
2018-05-18T22:41:33.168Z,10.50
2018-05-18T22:44:00.663Z,10.40
2018-05-18T22:46:28.924Z,10.30
2018-05-18T22:48:56.392Z,10.30
2018-05-18T22:51:23.887Z,10.30
2018-05-18T22:53:51.363Z,10.30
2018-05-18T22:56:18.854Z,10.20
2018-05-18T22:58:46.354Z,10.20
2018-05-18T23:01:13.818Z,10.20
2018-05-18T23:03:41.285Z,10.20
2018-05-18T23:06:08.767Z,10.10
2018-05-18T23:08:36.230Z,10.10
2018-05-18T23:11:03.698Z,10.10
2018-05-18T23:13:31.182Z,10.10
2018-05-18T23:15:59.431Z,10.00
2018-05-18T23:18:26.902Z,9.90
2018-05-18T23:20:55.150Z,10.00
2018-05-18T23:23:22.638Z,9.90
2018-05-18T23:25:50.922Z,9.90
2018-05-18T23:28:18.346Z,9.90
2018-05-18T23:30:45.818Z,10.00
2018-05-18T23:33:13.295Z,9.90
2018-05-18T23:35:41.547Z,9.90
2018-05-18T23:38:09.039Z,9.80
2018-05-18T23:40:36.497Z,9.80
2018-05-18T23:43:03.973Z,9.80
2018-05-18T23:45:31.431Z,9.80
2018-05-18T23:47:58.917Z,9.80
2018-05-18T23:50:26.406Z,9.80
2018-05-18T23:52:54.651Z,9.70
2018-05-18T23:55:22.118Z,9.70
2018-05-18T23:57:49.582Z,9.70
